Time;durP1;ratioP1;P1;durP2;ratioP2;P2;SDS_P1;SDS_P2;PMS_P1;PMS_P2;Temp;Humidity;BMP_temperature;BMP_pressure;BME280_temperature;BME280_humidity;BME280_pressure;Samples;Min_cycle;Max_cycle;Signal;HPM_P1;HPM_P2
2024/01/31 00:01:54;;;;;;;6.88;5.15;;;18.30;44.30;;;;;;5000623;27;45357;-62
2024/01/31 00:04:20;;;;;;;7.32;5.07;;;18.20;44.30;;;;;;5012357;27;46641;-62
2024/01/31 00:06:49;;;;;;;6.57;4.82;;;18.20;44.30;;;;;;5022884;28;45264;-62
2024/01/31 00:09:18;;;;;;;7.18;5.03;;;18.20;44.30;;;;;;5022980;28;45358;-62
2024/01/31 00:11:45;;;;;;;6.82;4.78;;;18.20;44.30;;;;;;5022726;28;46729;-62
2024/01/31 00:14:13;;;;;;;6.65;4.95;;;18.20;44.30;;;;;;5022578;28;45361;-62
2024/01/31 00:16:40;;;;;;;8.30;5.13;;;18.10;44.30;;;;;;5022918;27;45305;-62
2024/01/31 00:19:07;;;;;;;7.28;5.07;;;18.10;44.40;;;;;;5022967;28;45673;-62
2024/01/31 00:21:34;;;;;;;7.43;4.93;;;18.10;44.30;;;;;;5022468;28;46399;-62
2024/01/31 00:24:01;;;;;;;7.25;4.25;;;18.00;44.40;;;;;;5022368;28;45496;-63
2024/01/31 00:26:29;;;;;;;7.03;4.55;;;18.00;44.40;;;;;;5022744;28;45345;-62
2024/01/31 00:28:56;;;;;;;7.38;4.90;;;18.00;44.40;;;;;;5023245;28;45317;-62
2024/01/31 00:31:22;;;;;;;5.55;4.47;;;18.00;44.50;;;;;;5022236;28;46743;-61
2024/01/31 00:33:49;;;;;;;6.85;4.63;;;17.90;44.40;;;;;;5022298;28;45433;-62
2024/01/31 00:36:16;;;;;;;6.20;4.20;;;17.90;44.50;;;;;;5022651;28;45316;-62
2024/01/31 00:38:43;;;;;;;6.20;4.78;;;17.90;44.50;;;;;;5022705;28;45325;-63
2024/01/31 00:41:10;;;;;;;6.78;4.80;;;17.80;44.50;;;;;;5022293;28;45470;-62
2024/01/31 00:43:38;;;;;;;7.90;4.75;;;17.80;45.20;;;;;;5022147;28;45372;-62
2024/01/31 00:46:05;;;;;;;6.15;4.53;;;17.80;44.60;;;;;;5022490;28;45446;-62
2024/01/31 00:48:32;;;;;;;6.00;4.00;;;17.70;44.60;;;;;;5022636;28;45446;-62
2024/01/31 00:50:59;;;;;;;5.35;3.97;;;17.70;44.60;;;;;;5022398;28;45389;-63
2024/01/31 00:53:26;;;;;;;5.28;3.80;;;17.70;44.60;;;;;;5020573;28;45343;-62
2024/01/31 00:55:53;;;;;;;5.82;4.38;;;17.70;44.70;;;;;;5002650;27;45240;-63
2024/01/31 00:58:20;;;;;;;6.45;4.07;;;17.60;44.70;;;;;;5002625;27;45409;-63
2024/01/31 01:00:48;;;;;;;6.22;4.43;;;17.60;44.80;;;;;;5002243;27;45394;-63
2024/01/31 01:03:15;;;;;;;5.25;4.00;;;17.60;44.80;;;;;;5002519;27;45336;-64
2024/01/31 01:05:42;;;;;;;5.80;3.90;;;17.60;44.80;;;;;;5022261;28;45337;-62
2024/01/31 01:08:09;;;;;;;6.15;4.22;;;17.50;44.70;;;;;;5023142;27;45372;-62
2024/01/31 01:10:35;;;;;;;6.80;4.38;;;17.50;44.80;;;;;;5025153;28;46316;-62
2024/01/31 01:13:02;;;;;;;6.22;4.18;;;17.50;44.80;;;;;;5024734;28;45333;-63
2024/01/31 01:15:29;;;;;;;6.65;4.05;;;17.50;44.80;;;;;;5025322;28;45395;-62
2024/01/31 01:17:57;;;;;;;5.93;3.95;;;17.40;44.80;;;;;;5025263;28;45183;-63
2024/01/31 01:20:24;;;;;;;5.35;3.65;;;17.40;44.80;;;;;;5024791;28;46769;-62
2024/01/31 01:22:51;;;;;;;5.35;3.70;;;17.40;44.90;;;;;;5024670;28;45452;-65
2024/01/31 01:25:18;;;;;;;6.32;3.80;;;17.40;44.80;;;;;;5025014;28;45354;-63
2024/01/31 01:27:50;;;;;;;5.50;4.15;;;17.40;44.90;;;;;;5025464;28;45302;-62
2024/01/31 01:30:17;;;;;;;6.15;3.92;;;17.30;44.80;;;;;;5024789;27;45473;-62
2024/01/31 01:32:44;;;;;;;5.70;3.85;;;17.30;44.80;;;;;;5024668;28;45433;-62
2024/01/31 01:35:13;;;;;;;4.72;3.80;;;17.30;44.80;;;;;;5024933;28;45264;-64
2024/01/31 01:37:40;;;;;;;5.75;3.75;;;17.30;44.90;;;;;;5024986;28;45485;-62
2024/01/31 01:40:08;;;;;;;4.70;4.25;;;17.20;44.90;;;;;;5024484;28;47266;-62
2024/01/31 01:42:38;;;;;;;6.28;3.90;;;17.20;44.90;;;;;;5024703;28;45337;-62
2024/01/31 01:45:06;;;;;;;5.07;3.50;;;17.20;45.00;;;;;;5024618;28;45410;-62
2024/01/31 01:47:33;;;;;;;5.57;4.10;;;17.20;45.00;;;;;;5024792;28;45456;-62
2024/01/31 01:50:02;;;;;;;3.85;3.15;;;17.20;44.90;;;;;;5024226;28;46354;-62
2024/01/31 01:52:30;;;;;;;5.07;3.72;;;17.20;45.50;;;;;;5024346;27;45426;-63
2024/01/31 01:54:57;;;;;;;4.53;3.67;;;17.10;44.90;;;;;;5010577;28;45305;-62
2024/01/31 01:57:24;;;;;;;3.95;3.28;;;17.10;44.90;;;;;;5004954;27;45549;-62
2024/01/31 01:59:51;;;;;;;5.00;3.42;;;17.10;44.90;;;;;;5004779;27;46694;-63
2024/01/31 02:02:18;;;;;;;6.05;3.75;;;17.10;44.90;;;;;;5004426;27;45406;-63
2024/01/31 02:04:45;;;;;;;5.10;3.45;;;17.00;44.90;;;;;;5017572;28;45338;-62
2024/01/31 02:07:11;;;;;;;5.53;3.20;;;17.00;44.90;;;;;;5024535;28;45395;-63
2024/01/31 02:09:41;;;;;;;5.40;3.42;;;17.00;44.90;;;;;;5023971;28;45427;-62
2024/01/31 02:12:08;;;;;;;5.70;3.30;;;17.00;44.90;;;;;;5024236;28;45389;-62
2024/01/31 02:14:35;;;;;;;4.97;3.30;;;17.00;44.90;;;;;;5024264;28;45328;-62
2024/01/31 02:17:01;;;;;;;5.18;3.60;;;17.00;44.90;;;;;;5024367;28;45289;-62
2024/01/31 02:19:28;;;;;;;4.43;3.30;;;16.90;45.00;;;;;;5023988;28;46533;-62
2024/01/31 02:21:55;;;;;;;4.93;3.67;;;16.90;45.00;;;;;;5024589;27;45140;-62
2024/01/31 02:24:23;;;;;;;4.97;3.50;;;16.90;45.00;;;;;;5023987;28;45319;-62
2024/01/31 02:26:50;;;;;;;4.43;3.22;;;16.90;45.00;;;;;;5024539;27;45318;-62
2024/01/31 02:29:17;;;;;;;4.28;3.47;;;16.90;45.00;;;;;;5023888;28;45411;-62
2024/01/31 02:31:44;;;;;;;4.47;3.20;;;16.80;45.00;;;;;;5024038;28;45260;-62
2024/01/31 02:34:10;;;;;;;4.00;3.08;;;16.80;44.90;;;;;;5023984;28;45337;-62
2024/01/31 02:36:37;;;;;;;4.97;3.78;;;16.80;45.00;;;;;;5024312;28;45306;-62
2024/01/31 02:39:04;;;;;;;5.07;3.15;;;16.80;45.00;;;;;;5023918;28;46697;-63
2024/01/31 02:41:32;;;;;;;3.55;2.95;;;16.80;45.00;;;;;;5023972;28;45397;-63
2024/01/31 02:43:59;;;;;;;4.47;3.38;;;16.80;45.00;;;;;;5023715;28;45263;-63
2024/01/31 02:46:26;;;;;;;3.35;2.92;;;16.70;45.00;;;;;;5024226;28;45307;-62
2024/01/31 02:48:53;;;;;;;3.28;2.80;;;16.70;45.10;;;;;;5023878;28;46329;-63
2024/01/31 02:51:19;;;;;;;3.30;3.00;;;16.60;45.00;;;;;;5023787;28;45328;-62
2024/01/31 02:53:46;;;;;;;3.85;3.00;;;16.60;45.00;;;;;;5019628;28;45378;-63
2024/01/31 02:56:13;;;;;;;3.92;3.15;;;16.60;45.10;;;;;;5004295;27;45370;-62
2024/01/31 02:58:41;;;;;;;3.33;2.80;;;16.50;45.10;;;;;;5003935;27;46385;-62
2024/01/31 03:01:08;;;;;;;3.33;3.03;;;16.50;45.10;;;;;;5003832;27;45387;-62
2024/01/31 03:03:35;;;;;;;3.58;3.00;;;16.50;45.70;;;;;;5007124;28;45499;-62
2024/01/31 03:06:01;;;;;;;3.03;2.63;;;16.50;45.20;;;;;;5023951;28;45308;-62
2024/01/31 03:08:29;;;;;;;3.90;2.72;;;16.50;45.20;;;;;;5023484;28;46770;-63
2024/01/31 03:10:55;;;;;;;3.72;2.83;;;16.50;45.30;;;;;;5023749;27;45349;-62
2024/01/31 03:13:22;;;;;;;4.13;2.75;;;16.40;45.20;;;;;;5023552;28;45278;-62
2024/01/31 03:15:50;;;;;;;3.42;2.83;;;16.40;45.20;;;;;;5023862;28;45387;-62
2024/01/31 03:18:17;;;;;;;3.60;2.90;;;16.40;45.20;;;;;;5023273;28;46400;-61
2024/01/31 03:20:44;;;;;;;3.30;2.70;;;16.40;45.30;;;;;;5023227;28;45199;-62
2024/01/31 03:23:11;;;;;;;3.80;2.65;;;16.40;45.40;;;;;;5023620;28;45333;-63
2024/01/31 03:25:37;;;;;;;2.78;2.58;;;16.40;45.40;;;;;;5023733;28;45532;-62
2024/01/31 03:28:05;;;;;;;2.88;2.58;;;16.30;45.30;;;;;;5023349;28;45493;-62
2024/01/31 03:30:32;;;;;;;3.88;2.65;;;16.30;45.40;;;;;;5022328;28;45312;-62
2024/01/31 03:33:00;;;;;;;3.38;2.80;;;16.30;45.40;;;;;;5023320;28;45272;-63
2024/01/31 03:35:27;;;;;;;3.00;2.70;;;16.30;45.40;;;;;;5023647;28;45410;-62
2024/01/31 03:37:53;;;;;;;3.88;2.50;;;16.20;45.40;;;;;;5023133;28;45471;-62
2024/01/31 03:40:20;;;;;;;4.25;2.70;;;16.20;45.40;;;;;;5023263;28;45448;-62
2024/01/31 03:42:47;;;;;;;3.15;2.50;;;16.20;45.50;;;;;;5023075;28;45424;-61
2024/01/31 03:45:14;;;;;;;2.97;2.67;;;16.20;45.50;;;;;;5023339;28;45285;-62
2024/01/31 03:47:41;;;;;;;3.20;2.85;;;16.20;45.50;;;;;;5023011;28;46348;-62
2024/01/31 03:50:10;;;;;;;3.67;2.65;;;16.20;45.50;;;;;;5022996;28;45320;-61
2024/01/31 03:52:37;;;;;;;3.03;2.28;;;16.10;45.50;;;;;;5023035;28;45400;-62
2024/01/31 03:55:04;;;;;;;3.65;2.63;;;16.10;45.50;;;;;;5008412;28;45403;-62
2024/01/31 03:57:31;;;;;;;2.95;2.50;;;16.10;45.60;;;;;;5003151;28;46397;-62
2024/01/31 04:00:04;;;;;;;2.85;2.58;;;16.10;46.30;;;;;;5003265;27;45399;-63
2024/01/31 04:02:31;;;;;;;3.55;2.30;;;16.10;45.60;;;;;;5003584;27;45383;-64
2024/01/31 04:04:58;;;;;;;2.53;2.33;;;16.10;45.60;;;;;;5017860;28;45413;-63
2024/01/31 04:07:27;;;;;;;3.42;2.78;;;16.10;45.70;;;;;;5022701;28;46659;-63
2024/01/31 04:09:54;;;;;;;2.97;2.15;;;16.00;45.80;;;;;;5022503;28;45374;-63
2024/01/31 04:12:21;;;;;;;3.10;2.47;;;16.10;45.80;;;;;;5022963;28;45328;-64
2024/01/31 04:14:48;;;;;;;3.28;2.47;;;16.10;45.70;;;;;;5023001;28;45307;-63
2024/01/31 04:17:15;;;;;;;3.28;2.40;;;16.10;45.70;;;;;;5022760;28;45369;-62
2024/01/31 04:19:45;;;;;;;2.80;2.15;;;16.10;45.60;;;;;;5022622;28;45455;-61
2024/01/31 04:22:12;;;;;;;2.42;2.20;;;16.20;45.60;;;;;;5022931;27;45229;-62
2024/01/31 04:24:40;;;;;;;2.42;2.20;;;16.20;45.40;;;;;;5022745;28;45278;-62
2024/01/31 04:27:07;;;;;;;2.38;2.17;;;16.30;45.30;;;;;;5022574;28;45314;-62
2024/01/31 04:29:34;;;;;;;2.83;2.13;;;16.40;45.20;;;;;;5022512;28;45432;-62
2024/01/31 04:32:01;;;;;;;2.50;2.00;;;16.50;45.10;;;;;;5022638;28;45269;-62
2024/01/31 04:34:29;;;;;;;2.63;2.38;;;16.60;44.90;;;;;;5022898;27;45272;-62
2024/01/31 04:36:56;;;;;;;2.75;2.40;;;16.70;44.80;;;;;;5022678;27;47525;-62
2024/01/31 04:39:23;;;;;;;2.95;2.15;;;16.80;44.70;;;;;;5022367;28;45413;-62
2024/01/31 04:41:51;;;;;;;3.90;2.55;;;16.90;44.50;;;;;;5021962;28;45490;-62
2024/01/31 04:44:17;;;;;;;2.50;2.30;;;17.00;44.40;;;;;;5021742;28;45239;-61
2024/01/31 04:46:44;;;;;;;3.22;2.40;;;17.10;44.30;;;;;;5022269;28;46390;-61
2024/01/31 04:49:11;;;;;;;2.75;2.10;;;17.20;44.10;;;;;;5022221;28;45460;-61
2024/01/31 04:51:41;;;;;;;2.72;2.10;;;17.20;43.90;;;;;;5022269;28;45335;-61
2024/01/31 04:54:07;;;;;;;2.50;1.95;;;17.30;43.80;;;;;;5015261;28;45305;-61
2024/01/31 04:56:34;;;;;;;2.25;2.05;;;17.40;43.70;;;;;;5002276;27;46702;-61
2024/01/31 04:59:02;;;;;;;2.33;2.00;;;17.50;43.50;;;;;;5002351;27;45392;-62
2024/01/31 05:01:29;;;;;;;3.28;2.20;;;17.50;43.40;;;;;;5002641;28;45328;-61
2024/01/31 05:03:57;;;;;;;2.47;2.03;;;17.60;43.20;;;;;;5008444;27;45415;-61
2024/01/31 05:06:24;;;;;;;2.20;1.80;;;17.70;43.10;;;;;;5022224;28;45329;-61
2024/01/31 05:08:51;;;;;;;2.65;2.17;;;17.70;43.00;;;;;;5021776;28;45319;-62
2024/01/31 05:11:18;;;;;;;1.80;1.70;;;17.80;42.90;;;;;;5022154;28;45358;-61
2024/01/31 05:13:45;;;;;;;2.47;1.90;;;17.90;42.80;;;;;;5021887;28;45395;-61
2024/01/31 05:16:13;;;;;;;2.08;1.83;;;17.90;42.70;;;;;;5021848;28;46372;-61
2024/01/31 05:18:40;;;;;;;2.65;2.13;;;18.00;42.60;;;;;;5021804;28;45248;-61
2024/01/31 05:21:08;;;;;;;3.45;2.33;;;18.00;42.50;;;;;;5021940;28;45382;-61
2024/01/31 05:23:35;;;;;;;2.20;2.00;;;18.00;42.40;;;;;;5021930;27;45401;-62
2024/01/31 05:26:01;;;;;;;3.20;2.10;;;18.10;42.30;;;;;;5021719;28;45552;-62
2024/01/31 05:28:28;;;;;;;2.28;1.75;;;18.10;42.30;;;;;;5021737;28;45272;-62
2024/01/31 05:30:55;;;;;;;2.28;1.80;;;18.20;42.20;;;;;;5021713;28;45302;-61
2024/01/31 05:33:23;;;;;;;1.73;1.63;;;18.20;42.10;;;;;;5021753;28;45402;-62
2024/01/31 05:35:50;;;;;;;3.28;2.05;;;18.20;42.00;;;;;;5021506;28;46298;-63
2024/01/31 05:38:17;;;;;;;2.22;2.00;;;18.30;42.00;;;;;;5021567;28;45304;-60
2024/01/31 05:40:44;;;;;;;2.10;1.67;;;18.30;41.90;;;;;;5021651;28;45373;-61
2024/01/31 05:43:11;;;;;;;3.08;2.05;;;18.40;41.90;;;;;;5021600;27;45703;-62
2024/01/31 05:45:38;;;;;;;2.20;2.00;;;18.40;41.80;;;;;;5021299;28;46536;-63
2024/01/31 05:48:05;;;;;;;2.15;1.90;;;18.40;41.70;;;;;;5021411;28;45462;-61
2024/01/31 05:50:33;;;;;;;2.08;1.80;;;18.50;41.70;;;;;;5021615;28;45264;-62
2024/01/31 05:53:00;;;;;;;2.30;1.80;;;18.50;41.60;;;;;;5021619;28;45481;-62
2024/01/31 05:55:27;;;;;;;2.22;1.60;;;18.50;41.50;;;;;;5006020;28;46663;-62
2024/01/31 05:57:54;;;;;;;2.88;2.00;;;18.50;41.50;;;;;;5004624;27;45321;-62
2024/01/31 06:00:21;;;;;;;2.25;1.85;;;18.50;41.50;;;;;;5004621;27;45288;-62
2024/01/31 06:02:48;;;;;;;2.55;1.80;;;18.60;41.50;;;;;;5004616;28;45323;-61
2024/01/31 06:05:15;;;;;;;2.63;2.35;;;18.60;41.40;;;;;;5021219;27;46663;-61
2024/01/31 06:07:43;;;;;;;2.03;1.80;;;18.60;41.30;;;;;;5024271;28;45260;-62
2024/01/31 06:10:10;;;;;;;2.13;1.80;;;18.60;41.30;;;;;;5024246;28;45442;-62
2024/01/31 06:12:37;;;;;;;2.75;1.95;;;18.70;41.30;;;;;;5024472;28;45301;-61
2024/01/31 06:15:04;;;;;;;1.70;1.60;;;18.70;41.30;;;;;;5024002;28;45540;-61
2024/01/31 06:17:31;;;;;;;3.08;2.00;;;18.70;41.20;;;;;;5024272;28;45268;-62
2024/01/31 06:19:58;;;;;;;2.72;1.92;;;18.70;41.20;;;;;;5024384;28;45393;-61
2024/01/31 06:22:25;;;;;;;2.65;1.83;;;18.80;41.80;;;;;;5024397;28;45373;-62
2024/01/31 06:24:54;;;;;;;3.35;2.13;;;18.80;41.20;;;;;;5023985;27;45262;-61
2024/01/31 06:27:21;;;;;;;2.10;1.60;;;18.80;41.20;;;;;;5024140;28;45320;-61
2024/01/31 06:29:48;;;;;;;2.08;1.70;;;18.80;41.20;;;;;;5024229;28;45368;-61
2024/01/31 06:32:21;;;;;;;2.45;1.70;;;18.80;41.10;;;;;;5024222;28;45447;-62
2024/01/31 06:34:47;;;;;;;2.47;2.10;;;18.80;41.10;;;;;;5023913;27;46607;-61
2024/01/31 06:37:15;;;;;;;2.28;1.67;;;18.90;41.10;;;;;;5024140;28;45347;-61
2024/01/31 06:39:42;;;;;;;2.35;1.75;;;18.90;41.10;;;;;;5024012;27;45307;-63
2024/01/31 06:42:10;;;;;;;1.98;1.83;;;18.90;41.10;;;;;;5023191;28;45263;-62
2024/01/31 06:44:37;;;;;;;5.22;2.58;;;18.90;41.00;;;;;;5023144;28;46748;-64
2024/01/31 06:47:05;;;;;;;2.05;1.70;;;19.00;41.00;;;;;;5023423;28;45399;-62
2024/01/31 06:49:32;;;;;;;2.03;1.83;;;19.00;41.00;;;;;;5023962;27;45441;-62
2024/01/31 06:51:58;;;;;;;2.78;1.60;;;19.00;41.00;;;;;;5023714;27;45295;-63
2024/01/31 06:54:25;;;;;;;2.65;2.20;;;19.00;41.10;;;;;;5022870;27;45314;-62
2024/01/31 06:56:52;;;;;;;2.13;1.90;;;19.00;41.00;;;;;;5021544;28;45609;-62
2024/01/31 06:59:20;;;;;;;2.30;1.85;;;19.00;41.00;;;;;;5023130;27;45323;-62
2024/01/31 07:01:47;;;;;;;2.10;1.63;;;19.00;41.00;;;;;;5023345;27;45382;-62
2024/01/31 07:04:14;;;;;;;4.70;2.15;;;19.10;41.00;;;;;;5021996;27;46391;-62
2024/01/31 07:06:41;;;;;;;2.63;1.80;;;19.10;41.00;;;;;;5022290;28;45531;-63
2024/01/31 07:09:08;;;;;;;2.55;1.88;;;19.10;41.00;;;;;;5022330;27;45313;-62
2024/01/31 07:11:34;;;;;;;1.90;1.80;;;19.10;41.00;;;;;;5023265;28;45461;-61
2024/01/31 07:14:01;;;;;;;2.42;1.98;;;19.10;41.10;;;;;;5022745;27;45549;-63
2024/01/31 07:16:29;;;;;;;4.32;2.38;;;19.00;41.10;;;;;;5023382;27;45257;-60
2024/01/31 07:18:56;;;;;;;5.28;2.20;;;19.00;41.10;;;;;;5023304;28;45310;-62
2024/01/31 07:21:26;;;;;;;2.65;1.88;;;19.00;41.20;;;;;;5023029;28;45390;-63
2024/01/31 07:23:53;;;;;;;5.10;2.15;;;18.90;41.30;;;;;;5022814;28;45345;-61
2024/01/31 07:26:23;;;;;;;7.65;2.50;;;18.90;41.50;;;;;;5022971;28;45404;-62
2024/01/31 07:28:50;;;;;;;4.07;2.05;;;18.90;41.50;;;;;;5023039;27;45464;-61
2024/01/31 07:31:16;;;;;;;3.28;2.10;;;18.90;41.60;;;;;;5023163;28;45341;-61
2024/01/31 07:33:45;;;;;;;2.60;2.00;;;18.80;41.60;;;;;;5021844;28;45298;-62
2024/01/31 07:36:12;;;;;;;4.93;2.20;;;18.80;41.70;;;;;;5023265;28;45256;-62
2024/01/31 07:38:42;;;;;;;2.90;2.22;;;18.90;41.80;;;;;;5022824;27;45419;-61
2024/01/31 07:41:09;;;;;;;3.78;2.00;;;18.80;41.80;;;;;;5022636;27;45463;-61
2024/01/31 07:43:36;;;;;;;3.42;1.90;;;18.90;41.90;;;;;;5022687;27;47402;-62
2024/01/31 07:46:03;;;;;;;2.88;2.22;;;18.90;41.90;;;;;;5022214;27;45379;-61
2024/01/31 07:48:30;;;;;;;2.63;1.92;;;18.80;41.90;;;;;;5022527;27;45481;-61
2024/01/31 07:50:58;;;;;;;3.70;2.20;;;18.90;42.00;;;;;;5022463;27;45469;-61
2024/01/31 07:53:25;;;;;;;2.25;2.05;;;18.90;42.00;;;;;;5022544;28;46300;-61
2024/01/31 07:55:52;;;;;;;2.97;2.28;;;18.90;42.10;;;;;;5022285;28;45313;-61
2024/01/31 07:58:19;;;;;;;2.85;2.00;;;18.90;42.00;;;;;;5022613;27;45406;-61
2024/01/31 08:00:46;;;;;;;2.70;2.10;;;18.90;42.00;;;;;;5022207;28;45488;-61
2024/01/31 08:03:12;;;;;;;2.85;2.40;;;18.90;42.00;;;;;;5022310;27;46252;-61
2024/01/31 08:05:39;;;;;;;2.45;2.08;;;18.90;42.00;;;;;;5021766;28;45272;-61
2024/01/31 08:08:08;;;;;;;3.60;2.03;;;18.90;42.00;;;;;;5021811;27;45383;-61
2024/01/31 08:10:34;;;;;;;4.07;2.35;;;19.00;42.10;;;;;;5023326;27;45479;-60
2024/01/31 08:13:01;;;;;;;2.35;2.00;;;19.00;42.10;;;;;;5022257;27;46486;-61
2024/01/31 08:15:31;;;;;;;2.10;1.90;;;19.00;42.20;;;;;;5022675;27;45371;-61
2024/01/31 08:17:58;;;;;;;3.60;2.20;;;19.00;42.10;;;;;;5018205;27;45482;-62
2024/01/31 08:20:24;;;;;;;3.70;2.28;;;19.00;42.20;;;;;;5009846;28;45431;-62
2024/01/31 08:22:51;;;;;;;3.75;2.55;;;19.00;42.10;;;;;;5022334;27;46352;-62
2024/01/31 08:25:19;;;;;;;4.05;2.67;;;19.00;42.10;;;;;;5008177;27;45378;-61
2024/01/31 08:27:48;;;;;;;2.72;2.33;;;19.10;42.20;;;;;;5022291;27;45269;-61
2024/01/31 08:30:16;;;;;;;3.00;2.40;;;19.00;42.20;;;;;;5022439;27;45400;-61
2024/01/31 08:32:44;;;;;;;3.65;2.78;;;19.10;42.20;;;;;;5021351;28;46478;-61
2024/01/31 08:35:12;;;;;;;3.85;2.53;;;19.10;42.20;;;;;;5022115;27;45337;-60
2024/01/31 08:37:39;;;;;;;4.03;2.70;;;19.10;42.30;;;;;;5021976;27;45395;-63
2024/01/31 08:40:09;;;;;;;4.80;2.47;;;19.10;42.20;;;;;;5022158;27;45527;-62
2024/01/31 08:42:38;;;;;;;4.25;3.25;;;19.10;42.20;;;;;;5020701;27;46317;-61
2024/01/31 08:45:06;;;;;;;7.07;2.30;;;19.10;42.20;;;;;;5021960;28;45496;-61
2024/01/31 08:47:33;;;;;;;4.30;2.90;;;19.20;42.30;;;;;;5021574;28;45504;-61
2024/01/31 08:50:00;;;;;;;4.32;2.40;;;19.20;42.30;;;;;;5022387;27;45333;-61
2024/01/31 08:52:27;;;;;;;4.53;2.63;;;19.20;42.20;;;;;;5021760;27;45325;-62
2024/01/31 08:54:53;;;;;;;5.25;2.60;;;19.20;42.20;;;;;;5010600;27;45332;-61
2024/01/31 08:57:20;;;;;;;5.50;2.80;;;19.20;42.20;;;;;;5021824;27;45368;-62
2024/01/31 08:59:48;;;;;;;4.40;2.83;;;19.30;42.90;;;;;;5022070;27;45308;-62
2024/01/31 09:02:15;;;;;;;4.93;2.85;;;19.30;42.30;;;;;;5021173;28;45294;-61
2024/01/31 09:04:42;;;;;;;4.32;2.80;;;19.30;42.30;;;;;;5007254;28;45317;-61
2024/01/31 09:07:09;;;;;;;5.47;2.70;;;19.30;42.20;;;;;;5015375;28;45453;-61
2024/01/31 09:09:38;;;;;;;4.03;2.47;;;19.40;42.20;;;;;;5021752;27;45404;-61
2024/01/31 09:12:05;;;;;;;5.07;3.05;;;19.30;42.20;;;;;;5021497;27;45609;-62
2024/01/31 09:14:32;;;;;;;3.63;2.83;;;19.30;42.20;;;;;;5020949;28;45464;-61
2024/01/31 09:17:00;;;;;;;6.93;3.00;;;19.40;42.30;;;;;;5021897;27;45394;-61
2024/01/31 09:19:28;;;;;;;3.03;2.65;;;19.40;42.30;;;;;;5020861;28;45446;-62
2024/01/31 09:21:55;;;;;;;3.28;2.60;;;19.40;42.20;;;;;;5021432;27;45506;-61
2024/01/31 09:24:21;;;;;;;6.25;2.60;;;19.40;42.20;;;;;;5021591;27;45379;-61
2024/01/31 09:26:48;;;;;;;3.67;2.70;;;19.40;42.20;;;;;;5020748;27;45310;-62
2024/01/31 09:29:15;;;;;;;4.60;2.70;;;19.40;42.30;;;;;;5017757;28;45425;-63
2024/01/31 09:31:42;;;;;;;3.60;2.55;;;19.40;42.30;;;;;;5023624;27;46394;-62
2024/01/31 09:34:10;;;;;;;3.85;2.90;;;19.40;42.30;;;;;;5024313;27;45496;-62
2024/01/31 09:36:37;;;;;;;4.82;3.13;;;19.40;42.30;;;;;;5024630;28;45320;-61
2024/01/31 09:39:05;;;;;;;4.20;2.78;;;19.40;42.30;;;;;;5024616;27;45426;-62
2024/01/31 09:41:32;;;;;;;5.38;2.92;;;19.50;42.30;;;;;;5024331;27;45418;-62
2024/01/31 09:43:59;;;;;;;6.43;2.90;;;19.50;42.30;;;;;;5023777;27;45325;-61
2024/01/31 09:46:26;;;;;;;5.07;3.45;;;19.50;42.30;;;;;;5024492;28;45245;-62
2024/01/31 09:48:53;;;;;;;3.90;3.17;;;19.50;42.30;;;;;;5024443;27;45508;-61
2024/01/31 09:51:22;;;;;;;6.07;3.70;;;19.50;42.30;;;;;;5018819;28;46241;-61
2024/01/31 09:53:49;;;;;;;7.55;3.28;;;19.60;42.80;;;;;;5014680;27;45462;-62
2024/01/31 09:56:16;;;;;;;4.88;3.53;;;19.60;42.20;;;;;;5023621;28;45276;-62
2024/01/31 09:58:43;;;;;;;7.25;4.00;;;19.60;42.20;;;;;;5004565;28;45336;-62
2024/01/31 10:01:10;;;;;;;5.25;3.20;;;19.60;42.10;;;;;;5004361;27;45326;-62
2024/01/31 10:03:37;;;;;;;3.90;3.50;;;19.70;42.20;;;;;;5007805;27;45283;-61
2024/01/31 10:06:05;;;;;;;4.90;3.22;;;19.70;42.20;;;;;;5024194;28;45351;-62
2024/01/31 10:08:33;;;;;;;4.75;3.45;;;19.70;42.10;;;;;;5022894;28;45350;-62
2024/01/31 10:11:00;;;;;;;4.53;3.25;;;19.70;42.10;;;;;;5023315;27;47383;-62
2024/01/31 10:13:27;;;;;;;5.15;3.80;;;19.80;42.10;;;;;;5022969;27;45572;-62
2024/01/31 10:15:54;;;;;;;6.18;3.85;;;19.80;42.10;;;;;;5023693;27;45334;-61
2024/01/31 10:18:22;;;;;;;4.50;3.25;;;19.80;42.10;;;;;;5024451;27;45401;-61
2024/01/31 10:20:51;;;;;;;5.22;3.35;;;19.80;42.00;;;;;;5023357;27;46658;-61
2024/01/31 10:23:17;;;;;;;5.95;3.75;;;19.80;42.00;;;;;;5023216;28;45379;-61
2024/01/31 10:25:46;;;;;;;7.72;4.18;;;19.90;42.10;;;;;;5023328;28;45491;-62
2024/01/31 10:28:18;;;;;;;6.03;3.60;;;19.90;42.10;;;;;;5023467;27;45315;-62
2024/01/31 10:30:44;;;;;;;4.93;3.60;;;19.90;42.10;;;;;;5022334;28;46710;-61
2024/01/31 10:33:11;;;;;;;4.60;3.75;;;20.00;42.00;;;;;;5023713;27;45338;-61
2024/01/31 10:35:38;;;;;;;5.85;4.20;;;20.00;42.00;;;;;;5023091;27;45391;-61
2024/01/31 10:38:05;;;;;;;4.18;3.67;;;20.00;42.00;;;;;;5023575;28;45310;-61
2024/01/31 10:40:32;;;;;;;5.72;3.75;;;20.00;42.00;;;;;;5022613;27;45398;-61
2024/01/31 10:43:01;;;;;;;5.75;3.95;;;20.10;42.00;;;;;;5023450;27;45294;-61
2024/01/31 10:45:27;;;;;;;4.00;3.58;;;20.10;41.90;;;;;;5023425;27;45420;-63
2024/01/31 10:47:54;;;;;;;6.00;4.35;;;20.10;41.90;;;;;;5023548;27;45456;-62
2024/01/31 10:50:21;;;;;;;6.65;3.50;;;20.20;41.90;;;;;;5023180;27;46401;-62
2024/01/31 10:52:48;;;;;;;8.55;3.97;;;20.20;41.80;;;;;;5023194;27;45300;-62
2024/01/31 10:55:15;;;;;;;5.88;4.05;;;20.30;41.80;;;;;;5023535;27;45461;-61
2024/01/31 10:57:47;;;;;;;7.15;3.53;;;20.30;41.70;;;;;;5023297;28;45434;-61
2024/01/31 11:00:24;;;;;;;8.98;4.20;;;20.40;41.70;;;;;;5019799;27;45442;-62
2024/01/31 11:02:51;;;;;;;6.57;3.63;;;20.40;41.60;;;;;;5022436;28;45469;-63
2024/01/31 11:05:18;;;;;;;5.82;3.85;;;20.40;41.60;;;;;;5022526;27;45379;-62
2024/01/31 11:07:45;;;;;;;6.22;3.35;;;20.50;41.50;;;;;;5023041;27;45560;-62
2024/01/31 11:10:12;;;;;;;8.35;3.90;;;20.60;41.50;;;;;;5022560;27;46799;-63
2024/01/31 11:12:39;;;;;;;8.68;3.70;;;20.60;41.40;;;;;;5023142;27;45324;-61
2024/01/31 11:15:07;;;;;;;11.95;3.65;;;20.70;41.30;;;;;;5023415;27;45389;-61
2024/01/31 11:17:38;;;;;;;8.57;3.85;;;20.70;41.20;;;;;;5023573;27;45345;-62
2024/01/31 11:20:09;;;;;;;9.93;4.03;;;20.80;41.20;;;;;;5022449;27;47396;-62
2024/01/31 11:22:35;;;;;;;8.65;3.88;;;20.80;41.10;;;;;;5022649;28;45398;-62
2024/01/31 11:25:04;;;;;;;9.75;4.15;;;20.80;41.10;;;;;;5021672;27;45349;-62
2024/01/31 11:27:36;;;;;;;9.23;3.97;;;20.90;41.00;;;;;;5014162;27;45636;-61
2024/01/31 11:30:05;;;;;;;8.20;4.70;;;20.90;41.00;;;;;;5023138;27;45553;-62
2024/01/31 11:32:31;;;;;;;6.85;4.03;;;20.90;41.00;;;;;;5022744;27;45428;-62
2024/01/31 11:35:00;;;;;;;7.72;3.65;;;21.00;41.00;;;;;;5023181;28;45348;-62
2024/01/31 11:37:27;;;;;;;8.23;3.75;;;21.00;40.90;;;;;;5023064;28;45529;-62
2024/01/31 11:39:54;;;;;;;5.47;3.70;;;21.10;40.90;;;;;;5021878;27;46215;-62
2024/01/31 11:42:20;;;;;;;5.78;3.85;;;21.10;40.90;;;;;;5022691;28;45310;-62
2024/01/31 11:44:47;;;;;;;7.35;3.65;;;21.10;40.90;;;;;;5023077;27;45256;-62
2024/01/31 11:47:15;;;;;;;6.85;3.53;;;21.10;40.80;;;;;;5023448;27;45232;-62
2024/01/31 11:49:42;;;;;;;7.90;3.95;;;21.20;40.80;;;;;;5023002;27;45418;-61
2024/01/31 11:52:10;;;;;;;7.82;3.28;;;21.20;40.80;;;;;;5022369;27;45472;-62
2024/01/31 11:54:37;;;;;;;6.03;4.05;;;21.20;40.80;;;;;;5023009;27;45264;-61
2024/01/31 11:57:05;;;;;;;11.63;3.92;;;21.20;40.80;;;;;;5023233;28;45466;-63
2024/01/31 11:59:32;;;;;;;10.18;3.80;;;21.20;40.80;;;;;;5022889;28;46906;-62
2024/01/31 12:01:59;;;;;;;7.25;3.40;;;21.30;40.80;;;;;;5022819;28;45327;-62
2024/01/31 12:04:25;;;;;;;6.07;3.63;;;21.30;40.70;;;;;;5012564;27;45335;-62
2024/01/31 12:07:03;;;;;;;7.03;3.75;;;21.30;40.70;;;;;;5003463;27;45481;-62
2024/01/31 12:09:31;;;;;;;6.95;3.67;;;21.30;40.70;;;;;;5002685;28;46789;-62
2024/01/31 12:11:58;;;;;;;6.25;3.45;;;21.30;41.30;;;;;;5002916;28;45358;-62
2024/01/31 12:14:25;;;;;;;9.00;3.28;;;21.40;40.70;;;;;;5003184;27;45352;-62
2024/01/31 12:16:52;;;;;;;5.18;3.33;;;21.40;40.70;;;;;;5003426;27;45482;-62
2024/01/31 12:19:19;;;;;;;5.50;3.97;;;21.40;40.60;;;;;;5002924;27;45734;-63
2024/01/31 12:21:46;;;;;;;4.53;3.60;;;21.50;40.70;;;;;;5003132;27;45345;-61
2024/01/31 12:24:13;;;;;;;5.68;3.35;;;21.50;40.70;;;;;;5003348;27;45395;-61
2024/01/31 12:26:41;;;;;;;8.15;3.50;;;21.50;40.60;;;;;;5003038;27;45414;-62
2024/01/31 12:29:08;;;;;;;6.47;3.55;;;21.50;40.60;;;;;;5003051;28;46349;-62
2024/01/31 12:31:35;;;;;;;7.45;3.53;;;21.50;40.60;;;;;;5002689;27;45277;-62
2024/01/31 12:34:02;;;;;;;11.68;3.92;;;21.60;40.60;;;;;;5003016;27;45323;-62
2024/01/31 12:36:29;;;;;;;5.60;3.58;;;21.60;40.60;;;;;;5002870;28;45382;-62
2024/01/31 12:38:56;;;;;;;6.07;3.53;;;21.60;40.60;;;;;;5003922;27;45381;-63
2024/01/31 12:41:22;;;;;;;4.75;2.72;;;21.60;40.40;;;;;;5009381;28;45329;-62
2024/01/31 12:43:51;;;;;;;5.82;3.03;;;21.60;40.00;;;;;;5085318;27;45423;-62
2024/01/31 12:46:17;;;;;;;4.30;2.95;;;21.60;40.00;;;;;;5093621;27;45400;-63